Time,TemperatureF,DewpointF,PressureIn,WindDirection,WindDirectionDegrees,WindSpeedMPH,WindSpeedGustMPH,Humidity,HourlyPrecipIn,Conditions,Clouds,dailyrainin,SoftwareType,DateUTC
2013-05-27 00:00:00,46.0,45.6,30.10,WNW,283,4.1,5.5,99,0.00,,CLR,0.00,VWS V14.01,2013-05-27 04:00:00,
2013-05-27 00:02:00,45.8,45.5,30.10,West,270,2.9,5.0,99,0.00,,FEW250,0.00,VWS V14.01,2013-05-27 04:02:00,
2013-05-27 00:04:00,45.7,45.2,30.10,West,270,2.5,3.0,98,0.00,,FEW250,0.00,VWS V14.01,2013-05-27 04:04:00,
2013-05-27 00:06:00,45.7,45.1,30.10,WSW,243,3.6,5.5,98,0.00,,FEW250,0.00,VWS V14.01,2013-05-27 04:06:00,
2013-05-27 00:08:00,45.6,45.4,30.10,NNE,31,2.5,3.6,99,0.00,,FEW250,0.00,VWS V14.01,2013-05-27 04:08:00,
2013-05-27 00:12:00,45.5,45.4,30.10,WNW,283,5.5,7.5,100,0.00,,FEW250,0.00,VWS V14.01,2013-05-27 04:12:00,
2013-05-27 00:18:00,45.5,45.1,30.10,WSW,245,4.1,5.5,98,0.00,,FEW250,0.00,VWS V14.01,2013-05-27 04:18:00,
2013-05-27 00:24:00,45.4,45.1,30.10,NW,318,3.5,3.9,99,0.00,,FEW250,0.00,VWS V14.01,2013-05-27 04:24:00,
2013-05-27 00:30:00,45.3,45.0,30.10,West,267,5.0,6.8,99,0.00,,FEW250,0.00,VWS V14.01,2013-05-27 04:30:00,
2013-05-27 00:36:00,45.2,45.2,30.10,NW,309,4.6,4.7,100,0.00,,FEW250,0.00,VWS V14.01,2013-05-27 04:36:00,
2013-05-27 00:42:00,45.2,45.1,30.10,NNE,15,4.0,6.7,100,0.00,,FEW250,0.00,VWS V14.01,2013-05-27 04:42:00,
2013-05-27 00:48:00,45.1,45.0,30.11,North,356,4.0,7.6,100,0.00,,FEW250,0.00,VWS V14.01,2013-05-27 04:48:00,
2013-05-27 00:54:00,45.2,45.1,30.11,West,260,2.5,4.5,100,0.00,,FEW250,0.00,VWS V14.01,2013-05-27 04:54:00,
2013-05-27 01:00:00,45.1,45.1,30.11,NW,318,2.5,5.2,100,0.00,,FEW250,0.00,VWS V14.01,2013-05-27 05:00:00,
2013-05-27 01:06:00,45.0,44.9,30.11,West,269,2.7,5.7,100,0.00,,FEW300,0.00,VWS V14.01,2013-05-27 05:06:00,
2013-05-27 01:12:00,44.9,44.9,30.11,WSW,257,2.5,4.0,100,0.00,,FEW300,0.00,VWS V14.01,2013-05-27 05:12:00,
2013-05-27 01:18:00,44.5,44.5,30.11,North,1,2.5,2.5,100,0.00,,FEW300,0.00,VWS V14.01,2013-05-27 05:18:00,
2013-05-27 01:24:00,44.8,44.8,30.11,SW,231,4.6,6.0,100,0.00,,FEW300,0.00,VWS V14.01,2013-05-27 05:24:00,
2013-05-27 01:30:00,45.1,45.0,30.11,West,277,5.9,6.4,100,0.00,,FEW300,0.00,VWS V14.01,2013-05-27 05:30:00,
2013-05-27 01:36:00,45.0,45.0,30.11,WSW,238,5.4,8.0,100,0.00,,FEW300,0.00,VWS V14.01,2013-05-27 05:36:00,
2013-05-27 01:42:00,44.8,44.8,30.11,West,278,3.5,7.2,100,0.00,,FEW300,0.00,VWS V14.01,2013-05-27 05:42:00,
2013-05-27 01:48:00,44.6,44.6,30.11,SW,235,6.2,7.5,100,0.00,,FEW300,0.00,VWS V14.01,2013-05-27 05:48:00,
2013-05-27 01:54:00,44.4,44.4,30.11,WNW,288,4.1,5.4,100,0.00,,FEW300,0.00,VWS V14.01,2013-05-27 05:54:00,
2013-05-27 02:00:00,44.3,44.3,30.11,SW,214,3.8,7.8,100,0.00,,FEW300,0.00,VWS V14.01,2013-05-27 06:00:00,
2013-05-27 02:06:00,44.3,44.3,30.11,WNW,292,4.7,6.9,100,0.00,,FEW130,0.00,VWS V14.01,2013-05-27 06:06:00,
2013-05-27 02:12:00,44.1,44.1,30.11,SW,219,4.4,6.0,100,0.00,,FEW130,0.00,VWS V14.01,2013-05-27 06:12:00,
2013-05-27 02:18:00,44.2,44.2,30.11,WNW,284,6.8,7.0,100,0.00,,FEW130,0.00,VWS V14.01,2013-05-27 06:18:00,
2013-05-27 02:24:00,44.2,44.2,30.11,NNE,22,2.5,5.6,100,0.00,,FEW130,0.00,VWS V14.01,2013-05-27 06:24:00,
2013-05-27 02:30:00,44.2,44.2,30.11,WSW,257,4.5,7.8,100,0.00,,FEW130,0.00,VWS V14.01,2013-05-27 06:30:00,
2013-05-27 02:36:00,44.1,44.1,30.11,SW,222,2.5,6.1,100,0.00,,FEW130,0.00,VWS V14.01,2013-05-27 06:36:00,
2013-05-27 02:42:00,43.9,43.9,30.11,West,280,3.8,5.7,100,0.00,,FEW130,0.00,VWS V14.01,2013-05-27 06:42:00,
2013-05-27 02:48:00,43.8,43.8,30.11,WNW,284,2.5,6.5,100,0.00,,FEW130,0.00,VWS V14.01,2013-05-27 06:48:00,
2013-05-27 02:54:00,43.8,43.8,30.11,WSW,256,4.1,6.1,100,0.00,,FEW130,0.00,VWS V14.01,2013-05-27 06:54:00,
2013-05-27 03:00:00,43.8,43.8,30.11,SSW,208,2.5,5.2,100,0.00,,FEW130,0.00,VWS V14.01,2013-05-27 07:00:00,
2013-05-27 03:06:00,43.6,43.6,30.11,NW,308,2.5,5.7,100,0.00,,CLR,0.00,VWS V14.01,2013-05-27 07:06:00,
2013-05-27 03:12:00,43.6,43.6,30.11,West,274,4.2,6.1,100,0.00,,CLR,0.00,VWS V14.01,2013-05-27 07:12:00,
2013-05-27 03:18:00,43.6,43.6,30.11,SSW,193,3.5,5.2,100,0.00,,CLR,0.00,VWS V14.01,2013-05-27 07:18:00,
2013-05-27 03:24:00,43.5,43.5,30.11,WSW,257,2.9,4.9,100,0.00,,CLR,0.00,VWS V14.01,2013-05-27 07:24:00,
2013-05-27 03:30:00,43.3,43.3,30.12,WSW,257,2.5,2.5,100,0.00,,CLR,0.00,VWS V14.01,2013-05-27 07:30:00,
2013-05-27 03:36:00,43.1,43.1,30.12,SW,219,2.9,4.5,100,0.00,,CLR,0.00,VWS V14.01,2013-05-27 07:36:00,
2013-05-27 03:42:00,43.3,43.3,30.12,WNW,300,2.5,5.2,100,0.00,,CLR,0.00,VWS V14.01,2013-05-27 07:42:00,
2013-05-27 03:48:00,43.4,43.4,30.11,WSW,250,3.2,6.2,100,0.00,,CLR,0.00,VWS V14.01,2013-05-27 07:48:00,
2013-05-27 03:54:00,43.4,43.4,30.11,WNW,292,3.1,6.8,100,0.00,,CLR,0.00,VWS V14.01,2013-05-27 07:54:00,
2013-05-27 04:00:00,43.4,43.4,30.11,NW,311,2.5,7.2,100,0.00,,CLR,0.00,VWS V14.01,2013-05-27 08:00:00,
2013-05-27 04:06:00,43.6,43.6,30.11,West,277,2.9,4.6,100,0.00,,CLR,0.00,VWS V14.01,2013-05-27 08:06:00,
2013-05-27 04:12:00,43.3,43.3,30.12,WNW,298,2.5,2.5,100,0.00,,CLR,0.00,VWS V14.01,2013-05-27 08:12:00,
2013-05-27 04:18:00,43.2,43.2,30.12,NNW,347,2.5,2.5,100,0.00,,CLR,0.00,VWS V14.01,2013-05-27 08:18:00,
2013-05-27 04:24:00,42.8,42.8,30.12,NNW,347,2.5,2.5,100,0.00,,CLR,0.00,VWS V14.01,2013-05-27 08:24:00,
2013-05-27 04:30:00,42.9,42.9,30.12,West,280,3.6,5.8,100,0.00,,CLR,0.00,VWS V14.01,2013-05-27 08:30:00,
2013-05-27 04:36:00,43.1,43.1,30.11,NNE,31,2.5,3.1,100,0.00,,CLR,0.00,VWS V14.01,2013-05-27 08:36:00,
2013-05-27 04:42:00,42.9,42.9,30.11,WSW,253,3.7,5.9,100,0.00,,CLR,0.00,VWS V14.01,2013-05-27 08:42:00,
2013-05-27 04:48:00,42.7,42.7,30.12,West,276,2.5,4.4,100,0.00,,CLR,0.00,VWS V14.01,2013-05-27 08:48:00,
2013-05-27 04:54:00,43.1,43.1,30.12,WSW,243,4.5,5.5,100,0.00,,CLR,0.00,VWS V14.01,2013-05-27 08:54:00,
2013-05-27 05:00:00,43.1,43.1,30.12,WNW,284,4.6,5.7,100,0.00,,CLR,0.00,VWS V14.01,2013-05-27 09:00:00,
2013-05-27 05:06:00,43.3,43.3,30.12,WNW,288,6.0,7.1,100,0.00,,FEW090,0.00,VWS V14.01,2013-05-27 09:06:00,
2013-05-27 05:12:00,43.4,43.4,30.12,West,264,4.7,6.7,100,0.00,,FEW090,0.00,VWS V14.01,2013-05-27 09:12:00,
2013-05-27 05:18:00,43.4,43.4,30.12,West,259,4.9,7.0,100,0.00,,FEW090,0.00,VWS V14.01,2013-05-27 09:18:00,
2013-05-27 05:24:00,43.5,43.5,30.12,WNW,301,4.3,6.1,100,0.00,,FEW090,0.00,VWS V14.01,2013-05-27 09:24:00,
2013-05-27 05:30:00,43.5,43.5,30.12,West,266,4.1,6.6,100,0.00,,FEW090,0.00,VWS V14.01,2013-05-27 09:30:00,
2013-05-27 05:36:00,43.5,43.5,30.13,WNW,283,4.8,5.2,100,0.00,,FEW090,0.00,VWS V14.01,2013-05-27 09:36:00,
2013-05-27 05:42:00,43.5,43.5,30.12,West,280,4.2,7.8,100,0.00,,FEW090,0.00,VWS V14.01,2013-05-27 09:42:00,
2013-05-27 05:48:00,43.5,43.5,30.12,NW,304,4.0,5.6,100,0.00,,FEW090,0.00,VWS V14.01,2013-05-27 09:48:00,
2013-05-27 05:54:00,43.6,43.6,30.13,NNE,22,2.5,6.2,100,0.00,,FEW090,0.00,VWS V14.01,2013-05-27 09:54:00,
2013-05-27 06:00:00,43.8,43.8,30.13,West,260,3.1,3.9,100,0.00,,FEW090,0.00,VWS V14.01,2013-05-27 10:00:00,
2013-05-27 06:06:00,43.9,43.9,30.13,NNW,339,3.6,4.9,100,0.00,,FEW090,0.00,VWS V14.01,2013-05-27 10:06:00,
2013-05-27 06:12:00,44.2,44.2,30.13,West,267,4.4,6.1,100,0.00,,FEW090,0.00,VWS V14.01,2013-05-27 10:12:00,
2013-05-27 06:18:00,44.5,44.5,30.13,West,273,3.3,6.2,100,0.00,,FEW090,0.00,VWS V14.01,2013-05-27 10:18:00,
2013-05-27 06:24:00,44.8,44.8,30.13,WNW,301,3.9,9.3,100,0.00,,FEW090,0.00,VWS V14.01,2013-05-27 10:24:00,
2013-05-27 06:30:00,45.2,45.2,30.13,WNW,287,2.5,3.4,100,0.00,,FEW090,0.00,VWS V14.01,2013-05-27 10:30:00,
2013-05-27 06:36:00,45.6,45.6,30.13,West,277,4.4,4.9,100,0.00,,FEW090,0.00,VWS V14.01,2013-05-27 10:36:00,
2013-05-27 06:42:00,45.9,45.9,30.13,West,273,6.5,6.5,100,0.00,,FEW090,0.00,VWS V14.01,2013-05-27 10:42:00,
2013-05-27 06:48:00,46.4,46.4,30.13,West,270,4.8,7.5,100,0.00,,FEW090,0.00,VWS V14.01,2013-05-27 10:48:00,
2013-05-27 06:54:00,46.9,46.7,30.13,NW,308,2.9,6.5,99,0.00,,FEW090,0.00,VWS V14.01,2013-05-27 10:54:00,
2013-05-27 07:00:00,47.3,47.0,30.13,West,278,5.3,7.0,99,0.00,,FEW090,0.00,VWS V14.01,2013-05-27 11:00:00,
2013-05-27 07:06:00,47.6,47.0,30.13,WSW,249,7.7,7.7,98,0.00,,FEW095,0.00,VWS V14.01,2013-05-27 11:06:00,
2013-05-27 07:12:00,48.1,47.3,30.13,WNW,290,3.5,9.1,97,0.00,,FEW095,0.00,VWS V14.01,2013-05-27 11:12:00,
2013-05-27 07:18:00,48.6,47.9,30.13,West,260,5.3,5.7,97,0.00,,FEW095,0.00,VWS V14.01,2013-05-27 11:18:00,
2013-05-27 07:24:00,49.3,48.0,30.13,NE,34,2.9,6.2,95,0.00,,FEW095,0.00,VWS V14.01,2013-05-27 11:24:00,
2013-05-27 07:30:00,49.7,47.8,30.13,West,274,4.2,7.2,93,0.00,,FEW095,0.00,VWS V14.01,2013-05-27 11:30:00,
2013-05-27 07:36:00,50.8,47.7,30.13,West,281,4.7,9.0,89,0.00,,FEW095,0.00,VWS V14.01,2013-05-27 11:36:00,
2013-05-27 07:42:00,51.2,47.2,30.13,NNW,328,5.9,8.3,86,0.00,,FEW095,0.00,VWS V14.01,2013-05-27 11:42:00,
2013-05-27 07:48:00,51.6,47.8,30.13,WNW,291,2.5,6.0,87,0.00,,FEW095,0.00,VWS V14.01,2013-05-27 11:48:00,
2013-05-27 07:54:00,52.0,48.9,30.13,WNW,284,4.8,6.1,89,0.00,,FEW095,0.00,VWS V14.01,2013-05-27 11:54:00,
2013-05-27 08:00:00,52.4,48.7,30.13,NNW,329,5.9,8.2,87,0.00,,FEW095,0.00,VWS V14.01,2013-05-27 12:00:00,
2013-05-27 08:06:00,53.2,48.2,30.13,WNW,285,4.5,6.3,83,0.00,,FEW100,0.00,VWS V14.01,2013-05-27 12:06:00,
2013-05-27 08:12:00,54.5,48.3,30.13,West,276,6.4,7.5,80,0.00,,FEW100,0.00,VWS V14.01,2013-05-27 12:12:00,
2013-05-27 08:18:00,55.2,46.8,30.13,NW,304,6.5,6.8,73,0.00,,FEW100,0.00,VWS V14.01,2013-05-27 12:18:00,
2013-05-27 08:24:00,55.1,46.9,30.13,West,269,4.6,7.0,74,0.00,,FEW100,0.00,VWS V14.01,2013-05-27 12:24:00,
2013-05-27 08:30:00,55.7,47.9,30.13,WNW,283,4.2,5.0,75,0.00,,FEW100,0.00,VWS V14.01,2013-05-27 12:30:00,
2013-05-27 08:36:00,56.4,46.9,30.13,WNW,284,9.1,9.1,70,0.00,,FEW100,0.00,VWS V14.01,2013-05-27 12:36:00,
2013-05-27 08:42:00,58.4,50.5,30.13,NNE,24,2.7,5.8,75,0.00,,FEW100,0.00,VWS V14.01,2013-05-27 12:42:00,
2013-05-27 08:48:00,61.1,46.5,30.13,SSW,212,5.9,8.3,58,0.00,,FEW100,0.00,VWS V14.01,2013-05-27 12:48:00,
2013-05-27 08:54:00,62.9,43.4,30.13,SW,229,5.7,8.2,49,0.00,,FEW100,0.00,VWS V14.01,2013-05-27 12:54:00,
2013-05-27 09:00:00,65.1,44.2,30.13,NW,312,3.1,6.2,47,0.00,,FEW100,0.00,VWS V14.01,2013-05-27 13:00:00,
2013-05-27 09:06:00,64.8,43.2,30.13,WNW,295,4.4,6.9,45,0.00,,FEW200,0.00,VWS V14.01,2013-05-27 13:06:00,
2013-05-27 09:12:00,68.5,43.7,30.13,West,270,3.7,5.7,41,0.00,,FEW200,0.00,VWS V14.01,2013-05-27 13:12:00,
2013-05-27 09:18:00,67.1,41.3,30.13,WSW,249,4.6,7.2,39,0.00,,FEW200,0.00,VWS V14.01,2013-05-27 13:18:00,
2013-05-27 09:24:00,68.0,41.7,30.13,WNW,291,2.5,7.2,38,0.00,,FEW200,0.00,VWS V14.01,2013-05-27 13:24:00,
2013-05-27 09:30:00,70.2,42.1,30.13,SW,225,2.5,4.9,36,0.00,,FEW200,0.00,VWS V14.01,2013-05-27 13:30:00,
2013-05-27 09:36:00,69.8,44.8,30.13,NNW,336,3.4,6.2,41,0.00,,FEW200,0.00,VWS V14.01,2013-05-27 13:36:00,
2013-05-27 09:42:00,70.0,43.9,30.13,WSW,239,2.5,2.5,39,0.00,,FEW200,0.00,VWS V14.01,2013-05-27 13:42:00,
2013-05-27 09:48:00,69.2,42.7,30.13,East,100,4.4,7.0,38,0.00,,FEW200,0.00,VWS V14.01,2013-05-27 13:48:00,
2013-05-27 09:54:00,67.4,38.9,30.13,NW,326,5.4,10.6,35,0.00,,FEW200,0.00,VWS V14.01,2013-05-27 13:54:00,
2013-05-27 10:00:00,68.0,40.9,30.13,ENE,65,4.2,12.4,37,0.00,,FEW200,0.00,VWS V14.01,2013-05-27 14:00:00,
2013-05-27 10:06:00,68.4,42.2,30.13,WNW,288,4.8,10.4,38,0.00,,FEW250,0.00,VWS V14.01,2013-05-27 14:06:00,
2013-05-27 10:12:00,69.2,38.3,30.13,WSW,240,3.9,10.8,32,0.00,,FEW250,0.00,VWS V14.01,2013-05-27 14:12:00,
2013-05-27 10:18:00,70.1,41.9,30.13,WNW,290,3.8,10.0,36,0.00,,FEW250,0.00,VWS V14.01,2013-05-27 14:18:00,
2013-05-27 10:24:00,70.5,38.9,30.12,ENE,77,6.3,7.7,32,0.00,,FEW250,0.00,VWS V14.01,2013-05-27 14:24:00,
2013-05-27 10:30:00,70.2,38.3,30.12,North,6,6.9,10.6,31,0.00,,FEW250,0.00,VWS V14.01,2013-05-27 14:30:00,
2013-05-27 10:36:00,70.1,40.9,30.12,NNW,328,5.6,13.9,35,0.00,,FEW250,0.00,VWS V14.01,2013-05-27 14:36:00,
2013-05-27 10:42:00,70.7,36.7,30.12,North,3,9.5,10.6,29,0.00,,FEW250,0.00,VWS V14.01,2013-05-27 14:42:00,
2013-05-27 10:48:00,71.5,40.0,30.12,North,1,6.4,7.8,32,0.00,,FEW250,0.00,VWS V14.01,2013-05-27 14:48:00,
2013-05-27 10:54:00,70.2,36.5,30.12,East,84,5.7,14.5,29,0.00,,FEW250,0.00,VWS V14.01,2013-05-27 14:54:00,
2013-05-27 11:00:00,72.9,36.1,30.12,WNW,288,6.2,11.1,26,0.00,,FEW250,0.00,VWS V14.01,2013-05-27 15:00:00,
2013-05-27 11:06:00,70.0,34.4,30.12,NE,44,6.4,13.2,27,0.00,,FEW250,0.00,VWS V14.01,2013-05-27 15:06:00,
2013-05-27 11:12:00,71.0,38.1,30.12,NE,35,8.5,9.8,30,0.00,,FEW060,0.00,VWS V14.01,2013-05-27 15:12:00,
2013-05-27 11:18:00,70.4,35.0,30.12,NNE,13,5.4,10.4,27,0.00,,FEW060,0.00,VWS V14.01,2013-05-27 15:18:00,
2013-05-27 11:24:00,72.3,38.7,30.12,ENE,69,4.0,9.8,30,0.00,,FEW060,0.00,VWS V14.01,2013-05-27 15:24:00,
2013-05-27 11:30:00,72.9,30.8,30.12,North,6,4.1,9.0,21,0.00,,FEW060,0.00,VWS V14.01,2013-05-27 15:30:00,
2013-05-27 11:36:00,72.2,30.7,30.12,NW,316,5.4,10.0,22,0.00,,FEW060,0.00,VWS V14.01,2013-05-27 15:36:00,
2013-05-27 11:42:00,71.9,37.2,30.12,NNE,18,8.2,9.1,28,0.00,,FEW060,0.00,VWS V14.01,2013-05-27 15:42:00,
2013-05-27 11:48:00,71.9,35.4,30.12,NNE,32,7.2,11.9,26,0.00,,FEW060,0.00,VWS V14.01,2013-05-27 15:48:00,
2013-05-27 11:54:00,70.7,34.9,30.12,NNE,13,7.8,10.2,27,0.00,,FEW060,0.00,VWS V14.01,2013-05-27 15:54:00,
2013-05-27 12:00:00,71.6,34.2,30.12,East,84,6.4,8.6,25,0.00,,FEW060,0.00,VWS V14.01,2013-05-27 16:00:00,
2013-05-27 12:06:00,72.3,35.8,30.11,NE,44,5.3,11.4,26,0.00,,FEW060,0.00,VWS V14.01,2013-05-27 16:06:00,
2013-05-27 12:12:00,73.4,36.2,30.12,North,359,7.6,9.0,26,0.00,,FEW060,0.00,VWS V14.01,2013-05-27 16:12:00,
2013-05-27 12:18:00,72.6,36.5,30.11,NNE,17,5.0,9.1,27,0.00,,FEW060,0.00,VWS V14.01,2013-05-27 16:18:00,
2013-05-27 12:24:00,73.2,34.4,30.11,NNE,32,3.0,7.4,24,0.00,,FEW060,0.00,VWS V14.01,2013-05-27 16:24:00,
2013-05-27 12:30:00,72.9,35.0,30.11,WNW,291,3.9,8.7,25,0.00,,FEW060,0.00,VWS V14.01,2013-05-27 16:30:00,
2013-05-27 12:36:00,74.4,32.4,30.11,WSW,240,6.9,7.5,21,0.00,,FEW060,0.00,VWS V14.01,2013-05-27 16:36:00,
2013-05-27 12:42:00,75.8,33.2,30.11,South,177,5.4,9.3,21,0.00,,FEW060,0.00,VWS V14.01,2013-05-27 16:42:00,
2013-05-27 12:48:00,75.7,33.7,30.10,East,101,8.8,9.0,22,0.00,,FEW060,0.00,VWS V14.01,2013-05-27 16:48:00,
2013-05-27 12:54:00,74.0,32.7,30.10,NE,41,9.5,11.0,22,0.00,,FEW060,0.00,VWS V14.01,2013-05-27 16:54:00,
2013-05-27 13:00:00,74.4,31.8,30.10,NE,39,10.2,12.8,21,0.00,,FEW060,0.00,VWS V14.01,2013-05-27 17:00:00,
2013-05-27 13:06:00,75.5,28.8,30.10,NNE,20,5.9,9.1,18,0.00,,FEW060,0.00,VWS V14.01,2013-05-27 17:06:00,
2013-05-27 13:12:00,77.1,27.0,30.10,NNW,332,4.7,10.0,16,0.00,,FEW060,0.00,VWS V14.01,2013-05-27 17:12:00,
2013-05-27 13:18:00,75.8,28.9,30.10,North,357,2.5,9.2,18,0.00,,FEW060,0.00,VWS V14.01,2013-05-27 17:18:00,
2013-05-27 13:24:00,79.2,28.6,30.10,South,179,6.9,8.0,16,0.00,,FEW060,0.00,VWS V14.01,2013-05-27 17:24:00,
2013-05-27 13:30:00,74.5,33.0,30.10,NE,44,6.0,9.9,22,0.00,,FEW060,0.00,VWS V14.01,2013-05-27 17:30:00,
2013-05-27 13:36:00,75.1,32.7,30.10,NW,304,5.3,11.9,21,0.00,,FEW060,0.00,VWS V14.01,2013-05-27 17:36:00,
2013-05-27 13:42:00,76.0,33.4,30.10,NNE,25,4.7,9.4,21,0.00,,FEW060,0.00,VWS V14.01,2013-05-27 17:42:00,
2013-05-27 13:48:00,77.1,31.3,30.10,North,8,5.3,10.5,19,0.00,,FEW060,0.00,VWS V14.01,2013-05-27 17:48:00,
2013-05-27 13:54:00,79.2,29.5,30.10,WSW,253,7.7,9.0,16,0.00,,FEW060,0.00,VWS V14.01,2013-05-27 17:54:00,
2013-05-27 14:00:00,77.9,29.2,30.10,ENE,76,6.1,8.9,17,0.00,,FEW060,0.00,VWS V14.01,2013-05-27 18:00:00,
2013-05-27 14:06:00,77.9,28.3,30.10,WSW,253,3.7,8.2,16,0.00,,FEW060,0.00,VWS V14.01,2013-05-27 18:06:00,
2013-05-27 14:12:00,80.0,25.3,30.09,West,270,6.4,7.2,13,0.00,,FEW060,0.00,VWS V14.01,2013-05-27 18:12:00,
2013-05-27 14:18:00,77.0,27.0,30.09,NNW,336,3.7,5.7,16,0.00,,FEW060,0.00,VWS V14.01,2013-05-27 18:18:00,
2013-05-27 14:24:00,75.8,29.2,30.09,SW,222,4.1,9.5,18,0.00,,FEW060,0.00,VWS V14.01,2013-05-27 18:24:00,
2013-05-27 14:30:00,76.0,30.9,30.09,SSE,158,3.0,5.2,19,0.00,,FEW060,0.00,VWS V14.01,2013-05-27 18:30:00,
2013-05-27 14:36:00,77.2,27.6,30.09,WSW,248,5.8,9.3,16,0.00,,FEW060,0.00,VWS V14.01,2013-05-27 18:36:00,
2013-05-27 14:42:00,76.2,29.5,30.09,NW,312,4.9,6.9,18,0.00,,FEW060,0.00,VWS V14.01,2013-05-27 18:42:00,
2013-05-27 14:48:00,72.0,33.2,30.09,NNW,329,4.2,8.3,24,0.00,,FEW060,0.00,VWS V14.01,2013-05-27 18:48:00,
2013-05-27 14:54:00,71.9,30.4,30.09,WNW,292,6.1,7.2,21,0.00,,FEW060,0.00,VWS V14.01,2013-05-27 18:54:00,
2013-05-27 15:00:00,70.8,29.8,30.09,WSW,249,6.7,9.3,22,0.00,,FEW060,0.00,VWS V14.01,2013-05-27 19:00:00,
2013-05-27 15:06:00,71.0,29.4,30.09,NNE,18,4.9,7.6,21,0.00,,FEW055,0.00,VWS V14.01,2013-05-27 19:06:00,
2013-05-27 15:12:00,70.7,33.9,30.08,East,86,6.6,8.5,26,0.00,,FEW055,0.00,VWS V14.01,2013-05-27 19:12:00,
2013-05-27 15:18:00,70.3,34.2,30.08,ENE,76,6.8,8.4,26,0.00,,FEW055,0.00,VWS V14.01,2013-05-27 19:18:00,
2013-05-27 15:24:00,71.4,35.6,30.08,WNW,285,5.9,10.9,27,0.00,,FEW055,0.00,VWS V14.01,2013-05-27 19:24:00,
2013-05-27 15:30:00,71.5,28.8,30.08,West,274,4.7,9.2,20,0.00,,FEW055,0.00,VWS V14.01,2013-05-27 19:30:00,
2013-05-27 15:36:00,71.8,32.4,30.08,NNE,22,4.7,7.0,23,0.00,,FEW055,0.00,VWS V14.01,2013-05-27 19:36:00,
2013-05-27 15:42:00,70.6,31.4,30.08,SSW,208,4.3,8.8,23,0.00,,FEW055,0.00,VWS V14.01,2013-05-27 19:42:00,
2013-05-27 15:48:00,71.2,31.5,30.08,ENE,73,4.7,5.9,23,0.00,,FEW055,0.00,VWS V14.01,2013-05-27 19:48:00,
2013-05-27 15:54:00,71.9,29.4,30.08,NW,311,5.9,9.3,21,0.00,,FEW055,0.00,VWS V14.01,2013-05-27 19:54:00,
2013-05-27 16:00:00,72.6,30.7,30.08,East,79,3.8,6.2,21,0.00,,FEW055,0.00,VWS V14.01,2013-05-27 20:00:00,
2013-05-27 16:06:00,71.7,31.6,30.08,NW,326,4.1,9.5,23,0.00,,FEW055,0.00,VWS V14.01,2013-05-27 20:06:00,
2013-05-27 16:12:00,71.3,30.5,30.08,ENE,59,6.0,7.5,22,0.00,,FEW055,0.00,VWS V14.01,2013-05-27 20:12:00,
2013-05-27 16:18:00,71.1,31.4,30.08,East,97,4.2,8.4,23,0.00,,FEW055,0.00,VWS V14.01,2013-05-27 20:18:00,
2013-05-27 16:24:00,71.4,31.0,30.08,SW,229,4.9,6.7,22,0.00,,FEW055,0.00,VWS V14.01,2013-05-27 20:24:00,
2013-05-27 16:30:00,71.5,29.7,30.08,WNW,283,4.2,6.8,21,0.00,,FEW055,0.00,VWS V14.01,2013-05-27 20:30:00,
2013-05-27 16:36:00,71.5,28.8,30.08,WSW,239,5.5,6.3,20,0.00,,FEW055,0.00,VWS V14.01,2013-05-27 20:36:00,
2013-05-27 16:42:00,71.3,28.2,30.08,WNW,294,4.4,9.1,20,0.00,,FEW055,0.00,VWS V14.01,2013-05-27 20:42:00,
2013-05-27 16:48:00,70.7,33.0,30.08,ENE,70,5.8,6.8,25,0.00,,FEW055,0.00,VWS V14.01,2013-05-27 20:48:00,
2013-05-27 16:54:00,71.4,28.8,30.07,NNW,340,3.6,6.7,20,0.00,,FEW055,0.00,VWS V14.01,2013-05-27 20:54:00,
2013-05-27 17:00:00,71.4,30.8,30.08,West,271,4.5,6.0,22,0.00,,FEW055,0.00,VWS V14.01,2013-05-27 21:00:00,
2013-05-27 17:06:00,71.2,31.4,30.08,West,269,5.5,6.4,23,0.00,,SCT300,0.00,VWS V14.01,2013-05-27 21:06:00,
2013-05-27 17:12:00,71.2,29.2,30.08,NNW,340,4.0,5.1,21,0.00,,SCT300,0.00,VWS V14.01,2013-05-27 21:12:00,
2013-05-27 17:18:00,70.9,30.4,30.08,NNE,32,3.2,6.4,22,0.00,,SCT300,0.00,VWS V14.01,2013-05-27 21:18:00,
2013-05-27 17:24:00,70.4,29.7,30.08,North,349,5.0,10.8,22,0.00,,SCT300,0.00,VWS V14.01,2013-05-27 21:24:00,
2013-05-27 17:30:00,70.9,28.6,30.08,NNE,21,5.0,7.5,21,0.00,,SCT300,0.00,VWS V14.01,2013-05-27 21:30:00,
2013-05-27 17:36:00,71.3,27.6,30.08,NW,323,5.5,8.0,20,0.00,,SCT300,0.00,VWS V14.01,2013-05-27 21:36:00,
2013-05-27 17:42:00,70.5,29.8,30.08,WNW,283,5.4,7.2,22,0.00,,SCT300,0.00,VWS V14.01,2013-05-27 21:42:00,
2013-05-27 17:48:00,70.4,29.2,30.08,North,6,3.9,5.3,22,0.00,,SCT300,0.00,VWS V14.01,2013-05-27 21:48:00,
2013-05-27 17:54:00,69.6,31.0,30.08,SE,143,3.1,6.6,24,0.00,,SCT300,0.00,VWS V14.01,2013-05-27 21:54:00,
2013-05-27 18:00:00,69.1,31.1,30.08,NNE,13,4.2,6.9,24,0.00,,SCT300,0.00,VWS V14.01,2013-05-27 22:00:00,
2013-05-27 18:06:00,69.3,32.3,30.08,SE,134,3.1,5.7,25,0.00,,SCT300,0.00,VWS V14.01,2013-05-27 22:06:00,
2013-05-27 18:12:00,72.1,27.9,30.08,NNW,335,2.5,3.8,19,0.00,,SCT300,0.00,VWS V14.01,2013-05-27 22:12:00,
2013-05-27 18:18:00,69.9,30.2,30.08,West,271,2.5,4.7,23,0.00,,SCT300,0.00,VWS V14.01,2013-05-27 22:18:00,
2013-05-27 18:24:00,67.8,35.9,30.09,SSE,163,4.8,6.2,31,0.00,,SCT300,0.00,VWS V14.01,2013-05-27 22:24:00,
2013-05-27 18:30:00,66.2,35.8,30.09,South,172,6.7,11.0,32,0.00,,SCT300,0.00,VWS V14.01,2013-05-27 22:30:00,
2013-05-27 18:36:00,65.5,35.7,30.09,SSE,162,8.1,8.1,33,0.00,,SCT300,0.00,VWS V14.01,2013-05-27 22:36:00,
2013-05-27 18:42:00,64.4,37.5,30.10,South,176,6.4,10.4,37,0.00,,SCT300,0.00,VWS V14.01,2013-05-27 22:42:00,
2013-05-27 18:48:00,63.5,36.7,30.10,SE,128,6.8,8.0,37,0.00,,SCT300,0.00,VWS V14.01,2013-05-27 22:48:00,
2013-05-27 18:54:00,63.1,37.4,30.10,SSE,167,4.6,8.2,38,0.00,,SCT300,0.00,VWS V14.01,2013-05-27 22:54:00,
2013-05-27 19:00:00,62.8,36.3,30.10,SSW,204,4.3,6.8,37,0.00,,SCT300,0.00,VWS V14.01,2013-05-27 23:00:00,
2013-05-27 19:06:00,62.3,37.6,30.10,South,177,6.3,8.8,40,0.00,,SCT300,0.00,VWS V14.01,2013-05-27 23:06:00,
2013-05-27 19:12:00,61.8,38.7,30.10,South,174,2.5,6.7,42,0.00,,SCT300,0.00,VWS V14.01,2013-05-27 23:12:00,
2013-05-27 19:18:00,61.3,38.6,30.10,South,169,5.7,5.7,43,0.00,,SCT300,0.00,VWS V14.01,2013-05-27 23:18:00,
2013-05-27 19:24:00,60.8,39.7,30.10,SE,141,3.4,3.6,46,0.00,,SCT300,0.00,VWS V14.01,2013-05-27 23:24:00,
2013-05-27 19:30:00,60.5,41.0,30.10,SE,129,2.5,5.4,49,0.00,,SCT300,0.00,VWS V14.01,2013-05-27 23:30:00,
2013-05-27 19:36:00,59.9,42.8,30.11,South,190,5.7,5.7,53,0.00,,SCT300,0.00,VWS V14.01,2013-05-27 23:36:00,
2013-05-27 19:42:00,59.5,44.3,30.11,South,184,3.6,5.3,57,0.00,,SCT300,0.00,VWS V14.01,2013-05-27 23:42:00,
2013-05-27 19:48:00,59.1,46.4,30.11,SE,129,2.5,2.5,63,0.00,,SCT300,0.00,VWS V14.01,2013-05-27 23:48:00,
2013-05-27 19:54:00,58.7,47.3,30.11,SE,129,2.5,2.5,66,0.00,,SCT300,0.00,VWS V14.01,2013-05-27 23:54:00,
2013-05-27 20:00:00,58.1,47.3,30.12,SE,129,2.5,2.5,67,0.00,,SCT300,0.00,VWS V14.01,2013-05-28 00:00:00,
2013-05-27 20:06:00,57.8,50.2,30.12,SE,129,2.5,2.5,76,0.00,,FEW060,0.00,VWS V14.01,2013-05-28 00:06:00,
2013-05-27 20:12:00,56.8,49.6,30.12,SE,129,2.5,2.5,77,0.00,,FEW060,0.00,VWS V14.01,2013-05-28 00:12:00,
2013-05-27 20:18:00,56.5,51.1,30.12,SE,129,2.5,2.5,82,0.00,,FEW060,0.00,VWS V14.01,2013-05-28 00:18:00,
2013-05-27 20:24:00,55.9,50.1,30.12,SE,129,2.5,2.5,81,0.00,,FEW060,0.00,VWS V14.01,2013-05-28 00:24:00,
2013-05-27 20:30:00,55.8,51.2,30.12,SE,129,2.5,2.5,85,0.00,,FEW060,0.00,VWS V14.01,2013-05-28 00:30:00,
2013-05-27 20:36:00,55.6,51.1,30.12,SE,129,2.5,2.5,85,0.00,,FEW060,0.00,VWS V14.01,2013-05-28 00:36:00,
2013-05-27 20:42:00,55.6,51.5,30.13,SE,129,2.5,2.5,86,0.00,,FEW060,0.00,VWS V14.01,2013-05-28 00:42:00,
2013-05-27 20:48:00,54.9,51.7,30.13,SE,129,2.5,2.5,89,0.00,,FEW060,0.00,VWS V14.01,2013-05-28 00:48:00,
2013-05-27 20:54:00,54.6,52.4,30.13,SE,129,2.5,2.5,92,0.00,,FEW060,0.00,VWS V14.01,2013-05-28 00:54:00,
2013-05-27 21:00:00,54.1,52.7,30.13,SW,225,2.5,2.5,95,0.00,,FEW060,0.00,VWS V14.01,2013-05-28 01:00:00,
2013-05-27 21:06:00,53.5,52.5,30.13,SW,225,2.5,2.5,96,0.00,,CLR,0.00,VWS V14.01,2013-05-28 01:06:00,
2013-05-27 21:12:00,53.3,52.5,30.13,SW,225,2.5,2.5,97,0.00,,CLR,0.00,VWS V14.01,2013-05-28 01:12:00,
2013-05-27 21:18:00,52.7,52.3,30.14,SW,225,2.5,2.5,98,0.00,,CLR,0.00,VWS V14.01,2013-05-28 01:18:00,
2013-05-27 21:24:00,52.5,52.3,30.14,SW,225,2.5,2.5,99,0.00,,CLR,0.00,VWS V14.01,2013-05-28 01:24:00,
2013-05-27 21:30:00,53.2,52.8,30.14,SW,225,2.5,2.5,99,0.00,,CLR,0.00,VWS V14.01,2013-05-28 01:30:00,
2013-05-27 21:36:00,52.2,52.2,30.14,SW,225,2.5,2.5,100,0.00,,CLR,0.00,VWS V14.01,2013-05-28 01:36:00,
2013-05-27 21:42:00,51.6,51.6,30.15,SW,225,2.5,2.5,100,0.00,,CLR,0.00,VWS V14.01,2013-05-28 01:42:00,
2013-05-27 21:48:00,51.7,51.7,30.15,SW,236,3.6,4.2,100,0.00,,CLR,0.00,VWS V14.01,2013-05-28 01:48:00,
2013-05-27 21:54:00,51.8,51.8,30.15,SW,232,2.5,2.5,100,0.00,,CLR,0.00,VWS V14.01,2013-05-28 01:54:00,
2013-05-27 22:00:00,51.2,51.2,30.15,West,280,2.5,3.2,100,0.00,,CLR,0.00,VWS V14.01,2013-05-28 02:00:00,
2013-05-27 22:06:00,50.9,50.9,30.15,WSW,253,2.8,3.3,100,0.00,,CLR,0.00,VWS V14.01,2013-05-28 02:06:00,
2013-05-27 22:12:00,50.3,50.3,30.15,WNW,302,2.5,2.5,100,0.00,,CLR,0.00,VWS V14.01,2013-05-28 02:12:00,
2013-05-27 22:18:00,50.4,50.4,30.15,WNW,302,2.5,2.5,100,0.00,,CLR,0.00,VWS V14.01,2013-05-28 02:18:00,
2013-05-27 22:24:00,50.3,50.3,30.15,WNW,302,2.5,2.5,100,0.00,,CLR,0.00,VWS V14.01,2013-05-28 02:24:00,
2013-05-27 22:30:00,50.1,50.1,30.15,NNW,328,2.7,3.2,100,0.00,,CLR,0.00,VWS V14.01,2013-05-28 02:30:00,
2013-05-27 22:36:00,49.8,49.8,30.16,NNW,328,2.5,2.5,100,0.00,,CLR,0.00,VWS V14.01,2013-05-28 02:36:00,
2013-05-27 22:42:00,49.5,49.5,30.16,NNW,328,2.5,2.5,100,0.00,,CLR,0.00,VWS V14.01,2013-05-28 02:42:00,
2013-05-27 22:48:00,49.5,49.5,30.16,WNW,284,4.4,4.6,100,0.00,,CLR,0.00,VWS V14.01,2013-05-28 02:48:00,
2013-05-27 22:54:00,49.1,49.1,30.16,WNW,291,2.5,2.5,100,0.00,,CLR,0.00,VWS V14.01,2013-05-28 02:54:00,
2013-05-27 23:00:00,49.2,49.2,30.17,WNW,291,2.5,2.5,100,0.00,,CLR,0.00,VWS V14.01,2013-05-28 03:00:00,
2013-05-27 23:06:00,49.1,49.1,30.17,WNW,291,2.5,2.5,100,0.00,,CLR,0.00,VWS V14.01,2013-05-28 03:06:00,
2013-05-27 23:12:00,48.7,48.7,30.17,WNW,291,2.5,2.5,100,0.00,,CLR,0.00,VWS V14.01,2013-05-28 03:12:00,
2013-05-27 23:18:00,48.4,48.4,30.17,WNW,291,2.5,2.5,100,0.00,,CLR,0.00,VWS V14.01,2013-05-28 03:18:00,
2013-05-27 23:24:00,48.4,48.4,30.17,WNW,291,2.5,2.5,100,0.00,,CLR,0.00,VWS V14.01,2013-05-28 03:24:00,
2013-05-27 23:30:00,48.4,48.4,30.17,WNW,291,2.5,2.5,100,0.00,,CLR,0.00,VWS V14.01,2013-05-28 03:30:00,
2013-05-27 23:36:00,48.3,48.3,30.17,WNW,291,2.5,2.5,100,0.00,,CLR,0.00,VWS V14.01,2013-05-28 03:36:00,
2013-05-27 23:42:00,48.4,48.4,30.18,WNW,291,2.5,2.5,100,0.00,,CLR,0.00,VWS V14.01,2013-05-28 03:42:00,
2013-05-27 23:48:00,48.6,48.6,30.18,WNW,291,2.5,2.5,100,0.00,,CLR,0.00,VWS V14.01,2013-05-28 03:48:00,
2013-05-27 23:54:00,48.8,48.8,30.18,WNW,291,2.5,2.5,100,0.00,,CLR,0.00,VWS V14.01,2013-05-28 03:54:00,